sensor_id;sensor_type;location;lat;lon;timestamp;P1;durP1;ratioP1;P2;durP2;ratioP2
66966;SDS011;53900;51.468;-2.586;2023-07-31T00:02:18;3.08;;;0.90;;
66966;SDS011;53900;51.468;-2.586;2023-07-31T00:04:43;1.35;;;0.80;;
66966;SDS011;53900;51.468;-2.586;2023-07-31T00:07:08;2.30;;;0.90;;
66966;SDS011;53900;51.468;-2.586;2023-07-31T00:09:34;1.88;;;0.70;;
66966;SDS011;53900;51.468;-2.586;2023-07-31T00:11:59;2.40;;;0.95;;
66966;SDS011;53900;51.468;-2.586;2023-07-31T00:14:24;3.55;;;0.90;;
66966;SDS011;53900;51.468;-2.586;2023-07-31T00:16:50;1.48;;;0.80;;
66966;SDS011;53900;51.468;-2.586;2023-07-31T00:19:15;3.13;;;0.90;;
66966;SDS011;53900;51.468;-2.586;2023-07-31T00:21:40;3.10;;;0.93;;
66966;SDS011;53900;51.468;-2.586;2023-07-31T00:24:05;2.80;;;1.02;;
66966;SDS011;53900;51.468;-2.586;2023-07-31T00:26:30;1.15;;;0.93;;
66966;SDS011;53900;51.468;-2.586;2023-07-31T00:28:56;2.50;;;1.02;;
66966;SDS011;53900;51.468;-2.586;2023-07-31T00:31:21;1.42;;;1.00;;
66966;SDS011;53900;51.468;-2.586;2023-07-31T00:33:46;2.97;;;1.00;;
66966;SDS011;53900;51.468;-2.586;2023-07-31T00:36:11;5.75;;;0.80;;
66966;SDS011;53900;51.468;-2.586;2023-07-31T00:38:36;3.38;;;1.52;;
66966;SDS011;53900;51.468;-2.586;2023-07-31T00:41:02;8.93;;;1.45;;
66966;SDS011;53900;51.468;-2.586;2023-07-31T00:43:27;1.30;;;0.80;;
66966;SDS011;53900;51.468;-2.586;2023-07-31T00:45:52;0.95;;;0.70;;
66966;SDS011;53900;51.468;-2.586;2023-07-31T00:48:17;2.83;;;0.80;;
66966;SDS011;53900;51.468;-2.586;2023-07-31T00:50:43;1.42;;;1.00;;
66966;SDS011;53900;51.468;-2.586;2023-07-31T00:53:08;3.88;;;0.90;;
66966;SDS011;53900;51.468;-2.586;2023-07-31T00:55:33;0.82;;;0.80;;
66966;SDS011;53900;51.468;-2.586;2023-07-31T00:57:58;3.30;;;0.90;;
66966;SDS011;53900;51.468;-2.586;2023-07-31T01:00:24;2.00;;;0.75;;
66966;SDS011;53900;51.468;-2.586;2023-07-31T01:02:49;1.52;;;0.90;;
66966;SDS011;53900;51.468;-2.586;2023-07-31T01:05:15;1.38;;;0.80;;
66966;SDS011;53900;51.468;-2.586;2023-07-31T01:12:40;1.20;;;0.88;;
66966;SDS011;53900;51.468;-2.586;2023-07-31T01:15:05;1.10;;;0.70;;
66966;SDS011;53900;51.468;-2.586;2023-07-31T01:17:31;1.38;;;0.80;;
66966;SDS011;53900;51.468;-2.586;2023-07-31T01:19:57;3.08;;;0.75;;
66966;SDS011;53900;51.468;-2.586;2023-07-31T01:27:37;4.22;;;1.00;;
66966;SDS011;53900;51.468;-2.586;2023-07-31T01:30:16;1.63;;;0.80;;
66966;SDS011;53900;51.468;-2.586;2023-07-31T01:32:43;2.20;;;0.70;;
66966;SDS011;53900;51.468;-2.586;2023-07-31T01:35:08;0.73;;;0.70;;
66966;SDS011;53900;51.468;-2.586;2023-07-31T01:37:34;1.55;;;0.52;;
66966;SDS011;53900;51.468;-2.586;2023-07-31T01:39:59;1.75;;;0.90;;
66966;SDS011;53900;51.468;-2.586;2023-07-31T01:42:24;1.23;;;0.50;;
66966;SDS011;53900;51.468;-2.586;2023-07-31T01:44:50;1.58;;;0.63;;
66966;SDS011;53900;51.468;-2.586;2023-07-31T01:47:15;0.60;;;0.60;;
66966;SDS011;53900;51.468;-2.586;2023-07-31T01:49:40;1.35;;;0.63;;
66966;SDS011;53900;51.468;-2.586;2023-07-31T01:52:05;0.77;;;0.40;;
66966;SDS011;53900;51.468;-2.586;2023-07-31T01:54:31;0.50;;;0.50;;
66966;SDS011;53900;51.468;-2.586;2023-07-31T01:56:56;0.32;;;0.32;;
66966;SDS011;53900;51.468;-2.586;2023-07-31T01:59:21;0.90;;;0.50;;
66966;SDS011;53900;51.468;-2.586;2023-07-31T02:01:46;1.88;;;0.50;;
66966;SDS011;53900;51.468;-2.586;2023-07-31T02:04:12;3.22;;;1.00;;
66966;SDS011;53900;51.468;-2.586;2023-07-31T02:06:37;0.95;;;0.70;;
66966;SDS011;53900;51.468;-2.586;2023-07-31T02:09:02;5.15;;;1.20;;
66966;SDS011;53900;51.468;-2.586;2023-07-31T02:11:28;9.32;;;1.55;;
66966;SDS011;53900;51.468;-2.586;2023-07-31T02:13:53;5.40;;;1.50;;
66966;SDS011;53900;51.468;-2.586;2023-07-31T02:16:19;10.52;;;1.80;;
66966;SDS011;53900;51.468;-2.586;2023-07-31T02:18:44;8.50;;;1.48;;
66966;SDS011;53900;51.468;-2.586;2023-07-31T02:21:09;7.35;;;1.70;;
66966;SDS011;53900;51.468;-2.586;2023-07-31T02:23:34;11.63;;;2.45;;
66966;SDS011;53900;51.468;-2.586;2023-07-31T02:25:59;8.93;;;2.13;;
66966;SDS011;53900;51.468;-2.586;2023-07-31T02:28:25;10.15;;;1.95;;
66966;SDS011;53900;51.468;-2.586;2023-07-31T02:30:50;9.00;;;1.73;;
66966;SDS011;53900;51.468;-2.586;2023-07-31T02:33:15;8.98;;;1.70;;
66966;SDS011;53900;51.468;-2.586;2023-07-31T02:35:41;10.82;;;1.98;;
66966;SDS011;53900;51.468;-2.586;2023-07-31T02:38:06;10.77;;;2.05;;
66966;SDS011;53900;51.468;-2.586;2023-07-31T02:40:32;8.90;;;2.10;;
66966;SDS011;53900;51.468;-2.586;2023-07-31T02:42:57;12.25;;;2.15;;
66966;SDS011;53900;51.468;-2.586;2023-07-31T02:45:22;8.13;;;2.00;;
66966;SDS011;53900;51.468;-2.586;2023-07-31T02:47:47;16.80;;;2.58;;
66966;SDS011;53900;51.468;-2.586;2023-07-31T02:50:12;13.75;;;2.38;;
66966;SDS011;53900;51.468;-2.586;2023-07-31T02:52:38;14.35;;;2.60;;
66966;SDS011;53900;51.468;-2.586;2023-07-31T02:55:03;15.02;;;3.00;;
66966;SDS011;53900;51.468;-2.586;2023-07-31T02:57:28;13.98;;;3.80;;
66966;SDS011;53900;51.468;-2.586;2023-07-31T02:59:53;10.35;;;2.33;;
66966;SDS011;53900;51.468;-2.586;2023-07-31T03:02:19;18.10;;;2.90;;
66966;SDS011;53900;51.468;-2.586;2023-07-31T03:04:44;13.88;;;2.97;;
66966;SDS011;53900;51.468;-2.586;2023-07-31T03:07:09;14.55;;;2.63;;
66966;SDS011;53900;51.468;-2.586;2023-07-31T03:09:34;14.02;;;2.60;;
66966;SDS011;53900;51.468;-2.586;2023-07-31T03:11:59;15.23;;;2.67;;
66966;SDS011;53900;51.468;-2.586;2023-07-31T03:14:25;11.10;;;2.67;;
66966;SDS011;53900;51.468;-2.586;2023-07-31T03:16:51;12.30;;;2.80;;
66966;SDS011;53900;51.468;-2.586;2023-07-31T03:19:16;11.60;;;2.63;;
66966;SDS011;53900;51.468;-2.586;2023-07-31T03:21:42;13.57;;;2.40;;
66966;SDS011;53900;51.468;-2.586;2023-07-31T03:24:07;8.07;;;2.58;;
66966;SDS011;53900;51.468;-2.586;2023-07-31T03:26:32;9.23;;;2.30;;
66966;SDS011;53900;51.468;-2.586;2023-07-31T03:28:57;10.05;;;2.50;;
66966;SDS011;53900;51.468;-2.586;2023-07-31T03:31:23;13.45;;;2.70;;
66966;SDS011;53900;51.468;-2.586;2023-07-31T03:33:48;14.23;;;3.22;;
66966;SDS011;53900;51.468;-2.586;2023-07-31T03:36:13;19.95;;;3.00;;
66966;SDS011;53900;51.468;-2.586;2023-07-31T03:38:38;17.65;;;4.45;;
66966;SDS011;53900;51.468;-2.586;2023-07-31T03:41:03;14.30;;;2.75;;
66966;SDS011;53900;51.468;-2.586;2023-07-31T03:43:31;9.38;;;3.03;;
66966;SDS011;53900;51.468;-2.586;2023-07-31T03:45:56;15.73;;;3.22;;
66966;SDS011;53900;51.468;-2.586;2023-07-31T03:48:21;12.93;;;3.13;;
66966;SDS011;53900;51.468;-2.586;2023-07-31T03:50:46;9.57;;;2.88;;
66966;SDS011;53900;51.468;-2.586;2023-07-31T03:53:12;14.00;;;3.15;;
66966;SDS011;53900;51.468;-2.586;2023-07-31T03:55:37;15.35;;;3.40;;
66966;SDS011;53900;51.468;-2.586;2023-07-31T03:58:02;9.07;;;3.03;;
66966;SDS011;53900;51.468;-2.586;2023-07-31T04:00:27;12.30;;;3.33;;
66966;SDS011;53900;51.468;-2.586;2023-07-31T04:02:52;13.05;;;3.10;;
66966;SDS011;53900;51.468;-2.586;2023-07-31T04:05:18;14.07;;;3.10;;
66966;SDS011;53900;51.468;-2.586;2023-07-31T04:07:43;14.32;;;3.00;;
66966;SDS011;53900;51.468;-2.586;2023-07-31T04:10:08;12.63;;;3.70;;
66966;SDS011;53900;51.468;-2.586;2023-07-31T04:12:34;19.20;;;4.05;;
66966;SDS011;53900;51.468;-2.586;2023-07-31T04:14:59;12.02;;;3.90;;
66966;SDS011;53900;51.468;-2.586;2023-07-31T04:17:24;15.93;;;3.45;;
66966;SDS011;53900;51.468;-2.586;2023-07-31T04:19:49;13.77;;;3.33;;
66966;SDS011;53900;51.468;-2.586;2023-07-31T04:22:14;9.75;;;3.17;;
66966;SDS011;53900;51.468;-2.586;2023-07-31T04:24:40;9.45;;;3.53;;
66966;SDS011;53900;51.468;-2.586;2023-07-31T04:27:05;9.20;;;3.17;;
66966;SDS011;53900;51.468;-2.586;2023-07-31T04:29:30;11.45;;;3.45;;
66966;SDS011;53900;51.468;-2.586;2023-07-31T04:31:55;15.43;;;3.85;;
66966;SDS011;53900;51.468;-2.586;2023-07-31T04:34:20;17.48;;;4.57;;
66966;SDS011;53900;51.468;-2.586;2023-07-31T04:36:46;13.02;;;3.72;;
66966;SDS011;53900;51.468;-2.586;2023-07-31T04:39:11;13.10;;;3.80;;
66966;SDS011;53900;51.468;-2.586;2023-07-31T04:41:36;14.55;;;4.57;;
66966;SDS011;53900;51.468;-2.586;2023-07-31T04:44:01;15.52;;;4.22;;
66966;SDS011;53900;51.468;-2.586;2023-07-31T04:46:28;15.73;;;4.47;;
66966;SDS011;53900;51.468;-2.586;2023-07-31T04:48:53;12.23;;;3.95;;
66966;SDS011;53900;51.468;-2.586;2023-07-31T04:51:19;15.85;;;4.43;;
66966;SDS011;53900;51.468;-2.586;2023-07-31T04:53:46;15.00;;;4.18;;
66966;SDS011;53900;51.468;-2.586;2023-07-31T04:56:11;8.85;;;3.78;;
66966;SDS011;53900;51.468;-2.586;2023-07-31T04:58:36;17.35;;;4.03;;
66966;SDS011;53900;51.468;-2.586;2023-07-31T05:01:01;11.02;;;3.83;;
66966;SDS011;53900;51.468;-2.586;2023-07-31T05:03:26;11.88;;;4.35;;
66966;SDS011;53900;51.468;-2.586;2023-07-31T05:05:52;12.23;;;3.90;;
66966;SDS011;53900;51.468;-2.586;2023-07-31T05:08:17;15.70;;;4.30;;
66966;SDS011;53900;51.468;-2.586;2023-07-31T05:10:42;15.60;;;4.50;;
66966;SDS011;53900;51.468;-2.586;2023-07-31T05:13:08;15.23;;;4.63;;
66966;SDS011;53900;51.468;-2.586;2023-07-31T05:15:33;15.95;;;4.30;;
66966;SDS011;53900;51.468;-2.586;2023-07-31T05:17:58;13.20;;;4.05;;
66966;SDS011;53900;51.468;-2.586;2023-07-31T05:20:23;16.05;;;4.60;;
66966;SDS011;53900;51.468;-2.586;2023-07-31T05:22:48;12.57;;;4.70;;
66966;SDS011;53900;51.468;-2.586;2023-07-31T05:25:14;12.07;;;4.05;;
66966;SDS011;53900;51.468;-2.586;2023-07-31T05:27:39;17.42;;;4.60;;
66966;SDS011;53900;51.468;-2.586;2023-07-31T05:30:04;16.80;;;4.63;;
66966;SDS011;53900;51.468;-2.586;2023-07-31T05:32:30;14.88;;;3.90;;
66966;SDS011;53900;51.468;-2.586;2023-07-31T05:34:55;16.60;;;4.03;;
66966;SDS011;53900;51.468;-2.586;2023-07-31T05:37:21;15.57;;;4.25;;
66966;SDS011;53900;51.468;-2.586;2023-07-31T05:39:46;13.45;;;3.80;;
66966;SDS011;53900;51.468;-2.586;2023-07-31T05:42:11;15.18;;;4.97;;
66966;SDS011;53900;51.468;-2.586;2023-07-31T05:44:36;9.88;;;3.83;;
66966;SDS011;53900;51.468;-2.586;2023-07-31T05:47:02;10.05;;;3.55;;
66966;SDS011;53900;51.468;-2.586;2023-07-31T05:49:27;12.50;;;4.30;;
66966;SDS011;53900;51.468;-2.586;2023-07-31T05:51:52;17.58;;;4.25;;
66966;SDS011;53900;51.468;-2.586;2023-07-31T05:54:17;13.32;;;3.67;;
66966;SDS011;53900;51.468;-2.586;2023-07-31T05:56:43;7.05;;;2.90;;
66966;SDS011;53900;51.468;-2.586;2023-07-31T05:59:08;12.15;;;3.55;;
66966;SDS011;53900;51.468;-2.586;2023-07-31T06:01:34;9.05;;;2.90;;
66966;SDS011;53900;51.468;-2.586;2023-07-31T06:03:59;9.35;;;3.20;;
66966;SDS011;53900;51.468;-2.586;2023-07-31T06:06:24;10.95;;;3.35;;
66966;SDS011;53900;51.468;-2.586;2023-07-31T06:08:49;10.48;;;3.35;;
66966;SDS011;53900;51.468;-2.586;2023-07-31T06:11:15;8.40;;;3.22;;
66966;SDS011;53900;51.468;-2.586;2023-07-31T06:13:40;9.00;;;3.42;;
66966;SDS011;53900;51.468;-2.586;2023-07-31T06:16:05;10.43;;;3.13;;
66966;SDS011;53900;51.468;-2.586;2023-07-31T06:18:34;9.80;;;3.00;;
66966;SDS011;53900;51.468;-2.586;2023-07-31T06:20:59;14.20;;;4.03;;
66966;SDS011;53900;51.468;-2.586;2023-07-31T06:23:24;11.25;;;2.90;;
66966;SDS011;53900;51.468;-2.586;2023-07-31T06:25:49;13.18;;;3.63;;
66966;SDS011;53900;51.468;-2.586;2023-07-31T06:28:14;17.08;;;3.78;;
66966;SDS011;53900;51.468;-2.586;2023-07-31T06:30:40;14.65;;;3.80;;
66966;SDS011;53900;51.468;-2.586;2023-07-31T06:33:05;9.48;;;2.97;;
66966;SDS011;53900;51.468;-2.586;2023-07-31T06:35:30;8.98;;;3.00;;
66966;SDS011;53900;51.468;-2.586;2023-07-31T06:37:55;17.38;;;3.47;;
66966;SDS011;53900;51.468;-2.586;2023-07-31T06:40:21;11.57;;;3.28;;
66966;SDS011;53900;51.468;-2.586;2023-07-31T06:42:46;14.70;;;3.28;;
66966;SDS011;53900;51.468;-2.586;2023-07-31T06:45:12;9.60;;;2.85;;
66966;SDS011;53900;51.468;-2.586;2023-07-31T06:47:37;10.80;;;2.83;;
66966;SDS011;53900;51.468;-2.586;2023-07-31T06:50:02;11.13;;;2.83;;
66966;SDS011;53900;51.468;-2.586;2023-07-31T06:52:28;10.68;;;2.78;;
66966;SDS011;53900;51.468;-2.586;2023-07-31T06:55:03;9.77;;;2.90;;
66966;SDS011;53900;51.468;-2.586;2023-07-31T06:57:28;10.00;;;2.60;;
66966;SDS011;53900;51.468;-2.586;2023-07-31T06:59:54;12.63;;;3.17;;
66966;SDS011;53900;51.468;-2.586;2023-07-31T07:02:19;6.30;;;2.22;;
66966;SDS011;53900;51.468;-2.586;2023-07-31T07:04:44;12.07;;;3.05;;
66966;SDS011;53900;51.468;-2.586;2023-07-31T07:07:09;11.63;;;2.50;;
66966;SDS011;53900;51.468;-2.586;2023-07-31T07:09:34;13.45;;;2.40;;
66966;SDS011;53900;51.468;-2.586;2023-07-31T07:12:00;10.13;;;2.60;;
66966;SDS011;53900;51.468;-2.586;2023-07-31T07:14:25;8.75;;;2.50;;
66966;SDS011;53900;51.468;-2.586;2023-07-31T07:16:51;5.35;;;1.95;;
66966;SDS011;53900;51.468;-2.586;2023-07-31T07:19:16;14.00;;;2.55;;
66966;SDS011;53900;51.468;-2.586;2023-07-31T07:21:41;9.25;;;2.55;;
66966;SDS011;53900;51.468;-2.586;2023-07-31T07:24:06;10.85;;;3.15;;
66966;SDS011;53900;51.468;-2.586;2023-07-31T07:26:32;5.05;;;1.83;;
66966;SDS011;53900;51.468;-2.586;2023-07-31T07:28:57;9.73;;;2.35;;
66966;SDS011;53900;51.468;-2.586;2023-07-31T07:31:23;11.20;;;1.95;;
66966;SDS011;53900;51.468;-2.586;2023-07-31T07:33:48;4.93;;;2.03;;
66966;SDS011;53900;51.468;-2.586;2023-07-31T07:36:13;9.88;;;2.30;;
66966;SDS011;53900;51.468;-2.586;2023-07-31T07:38:38;6.28;;;1.73;;
66966;SDS011;53900;51.468;-2.586;2023-07-31T07:41:04;5.68;;;1.77;;
66966;SDS011;53900;51.468;-2.586;2023-07-31T07:43:29;5.22;;;1.65;;
66966;SDS011;53900;51.468;-2.586;2023-07-31T07:45:54;4.50;;;1.50;;
66966;SDS011;53900;51.468;-2.586;2023-07-31T07:48:20;2.90;;;1.50;;
66966;SDS011;53900;51.468;-2.586;2023-07-31T07:50:45;5.50;;;1.60;;
66966;SDS011;53900;51.468;-2.586;2023-07-31T07:53:10;5.30;;;1.65;;
66966;SDS011;53900;51.468;-2.586;2023-07-31T07:55:35;7.03;;;1.52;;
66966;SDS011;53900;51.468;-2.586;2023-07-31T07:58:00;5.22;;;1.60;;
66966;SDS011;53900;51.468;-2.586;2023-07-31T08:00:26;10.02;;;2.15;;
66966;SDS011;53900;51.468;-2.586;2023-07-31T08:02:51;5.70;;;2.13;;
66966;SDS011;53900;51.468;-2.586;2023-07-31T08:05:16;8.70;;;1.95;;
66966;SDS011;53900;51.468;-2.586;2023-07-31T08:07:42;7.25;;;1.70;;
66966;SDS011;53900;51.468;-2.586;2023-07-31T08:10:07;7.07;;;2.15;;
66966;SDS011;53900;51.468;-2.586;2023-07-31T08:12:33;8.38;;;2.10;;
66966;SDS011;53900;51.468;-2.586;2023-07-31T08:14:58;10.13;;;2.50;;
66966;SDS011;53900;51.468;-2.586;2023-07-31T08:17:25;5.97;;;1.88;;
66966;SDS011;53900;51.468;-2.586;2023-07-31T08:19:50;9.00;;;2.28;;
66966;SDS011;53900;51.468;-2.586;2023-07-31T08:22:15;10.15;;;2.38;;
66966;SDS011;53900;51.468;-2.586;2023-07-31T08:24:40;7.32;;;2.35;;
66966;SDS011;53900;51.468;-2.586;2023-07-31T08:27:06;4.97;;;1.98;;
66966;SDS011;53900;51.468;-2.586;2023-07-31T08:29:31;9.20;;;2.33;;
66966;SDS011;53900;51.468;-2.586;2023-07-31T08:31:56;11.00;;;2.33;;
66966;SDS011;53900;51.468;-2.586;2023-07-31T08:34:21;9.55;;;2.13;;
66966;SDS011;53900;51.468;-2.586;2023-07-31T08:36:46;9.10;;;2.45;;
66966;SDS011;53900;51.468;-2.586;2023-07-31T08:39:12;8.43;;;2.35;;
66966;SDS011;53900;51.468;-2.586;2023-07-31T08:41:40;11.50;;;2.75;;
66966;SDS011;53900;51.468;-2.586;2023-07-31T08:44:06;16.33;;;2.90;;
66966;SDS011;53900;51.468;-2.586;2023-07-31T08:46:32;13.50;;;3.28;;
66966;SDS011;53900;51.468;-2.586;2023-07-31T08:48:58;15.65;;;4.72;;
66966;SDS011;53900;51.468;-2.586;2023-07-31T08:51:23;17.08;;;3.35;;
66966;SDS011;53900;51.468;-2.586;2023-07-31T08:53:49;14.90;;;3.40;;
66966;SDS011;53900;51.468;-2.586;2023-07-31T08:56:14;20.08;;;3.80;;
66966;SDS011;53900;51.468;-2.586;2023-07-31T08:58:41;13.63;;;3.40;;
66966;SDS011;53900;51.468;-2.586;2023-07-31T09:01:07;17.50;;;3.55;;
66966;SDS011;53900;51.468;-2.586;2023-07-31T09:03:33;33.40;;;6.13;;
66966;SDS011;53900;51.468;-2.586;2023-07-31T09:05:58;17.80;;;3.80;;
66966;SDS011;53900;51.468;-2.586;2023-07-31T09:08:24;19.60;;;4.18;;
66966;SDS011;53900;51.468;-2.586;2023-07-31T09:10:51;11.77;;;3.72;;
66966;SDS011;53900;51.468;-2.586;2023-07-31T09:13:16;17.05;;;3.90;;
66966;SDS011;53900;51.468;-2.586;2023-07-31T09:15:45;19.15;;;3.60;;
66966;SDS011;53900;51.468;-2.586;2023-07-31T09:18:10;19.83;;;3.77;;
66966;SDS011;53900;51.468;-2.586;2023-07-31T09:20:36;17.20;;;3.90;;
66966;SDS011;53900;51.468;-2.586;2023-07-31T09:25:31;22.27;;;5.00;;
66966;SDS011;53900;51.468;-2.586;2023-07-31T09:30:21;14.27;;;4.30;;
66966;SDS011;53900;51.468;-2.586;2023-07-31T09:32:47;24.05;;;5.65;;
66966;SDS011;53900;51.468;-2.586;2023-07-31T09:37:40;16.92;;;4.10;;
66966;SDS011;53900;51.468;-2.586;2023-07-31T09:40:06;27.15;;;5.97;;
66966;SDS011;53900;51.468;-2.586;2023-07-31T09:42:31;24.27;;;5.30;;
66966;SDS011;53900;51.468;-2.586;2023-07-31T09:45:08;17.20;;;3.90;;
66966;SDS011;53900;51.468;-2.586;2023-07-31T09:47:34;24.17;;;6.30;;
66966;SDS011;53900;51.468;-2.586;2023-07-31T09:49:59;21.40;;;5.38;;
66966;SDS011;53900;51.468;-2.586;2023-07-31T09:52:26;18.42;;;5.43;;
66966;SDS011;53900;51.468;-2.586;2023-07-31T09:54:51;18.48;;;4.53;;
66966;SDS011;53900;51.468;-2.586;2023-07-31T09:57:16;13.30;;;3.93;;
66966;SDS011;53900;51.468;-2.586;2023-07-31T09:59:42;15.25;;;4.50;;
66966;SDS011;53900;51.468;-2.586;2023-07-31T10:02:08;17.58;;;4.38;;
66966;SDS011;53900;51.468;-2.586;2023-07-31T10:04:35;17.48;;;4.88;;
66966;SDS011;53900;51.468;-2.586;2023-07-31T10:07:01;22.50;;;5.38;;
66966;SDS011;53900;51.468;-2.586;2023-07-31T10:09:28;19.13;;;5.03;;
66966;SDS011;53900;51.468;-2.586;2023-07-31T10:11:56;18.60;;;4.38;;
66966;SDS011;53900;51.468;-2.586;2023-07-31T10:14:24;17.77;;;5.13;;
66966;SDS011;53900;51.468;-2.586;2023-07-31T10:16:51;16.65;;;4.75;;
66966;SDS011;53900;51.468;-2.586;2023-07-31T10:19:17;17.00;;;4.35;;
66966;SDS011;53900;51.468;-2.586;2023-07-31T10:21:42;21.85;;;4.88;;
66966;SDS011;53900;51.468;-2.586;2023-07-31T10:24:08;15.00;;;4.47;;
66966;SDS011;53900;51.468;-2.586;2023-07-31T10:26:34;19.80;;;4.28;;
66966;SDS011;53900;51.468;-2.586;2023-07-31T10:29:00;21.27;;;5.00;;
66966;SDS011;53900;51.468;-2.586;2023-07-31T10:31:26;18.10;;;4.65;;
66966;SDS011;53900;51.468;-2.586;2023-07-31T10:33:52;15.57;;;4.80;;
66966;SDS011;53900;51.468;-2.586;2023-07-31T10:36:18;13.45;;;3.92;;
66966;SDS011;53900;51.468;-2.586;2023-07-31T10:38:44;23.25;;;5.07;;
66966;SDS011;53900;51.468;-2.586;2023-07-31T10:41:09;17.17;;;4.40;;
66966;SDS011;53900;51.468;-2.586;2023-07-31T10:43:35;19.88;;;4.38;;
66966;SDS011;53900;51.468;-2.586;2023-07-31T10:46:03;12.70;;;4.07;;
66966;SDS011;53900;51.468;-2.586;2023-07-31T10:48:33;13.60;;;4.05;;
66966;SDS011;53900;51.468;-2.586;2023-07-31T10:50:58;16.35;;;4.47;;
66966;SDS011;53900;51.468;-2.586;2023-07-31T10:55:49;16.35;;;4.75;;
66966;SDS011;53900;51.468;-2.586;2023-07-31T10:58:17;17.35;;;4.35;;
66966;SDS011;53900;51.468;-2.586;2023-07-31T11:00:43;21.40;;;4.15;;
66966;SDS011;53900;51.468;-2.586;2023-07-31T11:03:09;17.58;;;4.20;;
66966;SDS011;53900;51.468;-2.586;2023-07-31T11:08:23;21.10;;;4.82;;
66966;SDS011;53900;51.468;-2.586;2023-07-31T11:13:26;19.10;;;4.25;;
66966;SDS011;53900;51.468;-2.586;2023-07-31T11:15:52;29.92;;;5.28;;
66966;SDS011;53900;51.468;-2.586;2023-07-31T11:18:17;18.83;;;4.40;;
66966;SDS011;53900;51.468;-2.586;2023-07-31T11:20:43;23.50;;;4.65;;
66966;SDS011;53900;51.468;-2.586;2023-07-31T11:23:08;18.17;;;4.85;;
66966;SDS011;53900;51.468;-2.586;2023-07-31T11:25:34;19.20;;;4.70;;
66966;SDS011;53900;51.468;-2.586;2023-07-31T11:28:06;18.55;;;4.80;;
66966;SDS011;53900;51.468;-2.586;2023-07-31T11:30:32;18.58;;;4.63;;
66966;SDS011;53900;51.468;-2.586;2023-07-31T11:32:58;24.75;;;4.95;;
66966;SDS011;53900;51.468;-2.586;2023-07-31T11:35:23;20.75;;;4.78;;
66966;SDS011;53900;51.468;-2.586;2023-07-31T11:37:48;28.35;;;6.38;;
66966;SDS011;53900;51.468;-2.586;2023-07-31T11:40:14;28.55;;;5.43;;
66966;SDS011;53900;51.468;-2.586;2023-07-31T11:42:39;18.00;;;5.00;;
66966;SDS011;53900;51.468;-2.586;2023-07-31T11:45:05;21.50;;;5.20;;
66966;SDS011;53900;51.468;-2.586;2023-07-31T11:47:34;20.30;;;5.28;;
66966;SDS011;53900;51.468;-2.586;2023-07-31T11:50:00;14.27;;;4.60;;
66966;SDS011;53900;51.468;-2.586;2023-07-31T11:52:25;23.30;;;5.47;;
66966;SDS011;53900;51.468;-2.586;2023-07-31T11:54:50;28.23;;;4.72;;
66966;SDS011;53900;51.468;-2.586;2023-07-31T11:57:16;15.63;;;4.90;;
66966;SDS011;53900;51.468;-2.586;2023-07-31T11:59:42;20.73;;;5.25;;
66966;SDS011;53900;51.468;-2.586;2023-07-31T12:02:07;16.60;;;4.57;;
66966;SDS011;53900;51.468;-2.586;2023-07-31T12:04:33;19.45;;;4.65;;
66966;SDS011;53900;51.468;-2.586;2023-07-31T12:06:59;23.60;;;5.13;;
66966;SDS011;53900;51.468;-2.586;2023-07-31T12:09:25;18.45;;;4.40;;
66966;SDS011;53900;51.468;-2.586;2023-07-31T12:11:51;20.15;;;4.57;;
66966;SDS011;53900;51.468;-2.586;2023-07-31T12:14:22;15.00;;;4.15;;
66966;SDS011;53900;51.468;-2.586;2023-07-31T12:16:52;13.95;;;4.47;;
66966;SDS011;53900;51.468;-2.586;2023-07-31T12:19:18;19.85;;;4.40;;
66966;SDS011;53900;51.468;-2.586;2023-07-31T12:21:44;17.42;;;4.50;;
66966;SDS011;53900;51.468;-2.586;2023-07-31T12:24:09;14.90;;;4.90;;
66966;SDS011;53900;51.468;-2.586;2023-07-31T12:26:34;15.93;;;4.07;;
66966;SDS011;53900;51.468;-2.586;2023-07-31T12:29:00;16.75;;;4.97;;
66966;SDS011;53900;51.468;-2.586;2023-07-31T12:31:25;14.10;;;4.30;;
66966;SDS011;53900;51.468;-2.586;2023-07-31T12:33:52;13.55;;;4.30;;
66966;SDS011;53900;51.468;-2.586;2023-07-31T12:36:21;19.20;;;4.10;;
66966;SDS011;53900;51.468;-2.586;2023-07-31T12:38:46;16.52;;;4.00;;
66966;SDS011;53900;51.468;-2.586;2023-07-31T12:41:12;18.50;;;4.55;;
66966;SDS011;53900;51.468;-2.586;2023-07-31T12:43:37;16.05;;;4.65;;
66966;SDS011;53900;51.468;-2.586;2023-07-31T12:46:03;15.80;;;4.68;;
66966;SDS011;53900;51.468;-2.586;2023-07-31T12:48:28;13.32;;;4.25;;
66966;SDS011;53900;51.468;-2.586;2023-07-31T12:50:53;13.70;;;4.45;;
66966;SDS011;53900;51.468;-2.586;2023-07-31T12:53:19;17.77;;;4.25;;
66966;SDS011;53900;51.468;-2.586;2023-07-31T12:55:44;12.05;;;4.30;;
66966;SDS011;53900;51.468;-2.586;2023-07-31T12:58:09;17.52;;;4.50;;
66966;SDS011;53900;51.468;-2.586;2023-07-31T13:00:34;19.05;;;4.80;;
66966;SDS011;53900;51.468;-2.586;2023-07-31T13:03:00;14.77;;;4.13;;
66966;SDS011;53900;51.468;-2.586;2023-07-31T13:05:25;19.55;;;4.47;;
66966;SDS011;53900;51.468;-2.586;2023-07-31T13:07:51;12.25;;;3.50;;
66966;SDS011;53900;51.468;-2.586;2023-07-31T13:10:16;9.75;;;3.65;;
66966;SDS011;53900;51.468;-2.586;2023-07-31T13:12:41;15.32;;;4.47;;
66966;SDS011;53900;51.468;-2.586;2023-07-31T13:15:06;13.60;;;3.88;;
66966;SDS011;53900;51.468;-2.586;2023-07-31T13:17:32;13.40;;;3.53;;
66966;SDS011;53900;51.468;-2.586;2023-07-31T13:19:57;12.32;;;4.00;;
66966;SDS011;53900;51.468;-2.586;2023-07-31T13:22:22;9.57;;;3.78;;
66966;SDS011;53900;51.468;-2.586;2023-07-31T13:24:47;14.63;;;3.85;;
66966;SDS011;53900;51.468;-2.586;2023-07-31T13:27:13;13.32;;;4.90;;
66966;SDS011;53900;51.468;-2.586;2023-07-31T13:29:38;11.25;;;3.83;;
66966;SDS011;53900;51.468;-2.586;2023-07-31T13:32:04;13.52;;;3.90;;
66966;SDS011;53900;51.468;-2.586;2023-07-31T13:34:29;13.63;;;4.03;;
66966;SDS011;53900;51.468;-2.586;2023-07-31T13:36:54;18.08;;;4.53;;
66966;SDS011;53900;51.468;-2.586;2023-07-31T13:39:21;16.70;;;4.10;;
66966;SDS011;53900;51.468;-2.586;2023-07-31T13:41:46;14.52;;;3.92;;
66966;SDS011;53900;51.468;-2.586;2023-07-31T13:44:11;14.25;;;4.25;;
66966;SDS011;53900;51.468;-2.586;2023-07-31T13:46:36;12.18;;;3.75;;
66966;SDS011;53900;51.468;-2.586;2023-07-31T13:49:01;18.48;;;3.97;;
66966;SDS011;53900;51.468;-2.586;2023-07-31T13:51:27;12.13;;;3.63;;
66966;SDS011;53900;51.468;-2.586;2023-07-31T13:53:53;18.05;;;4.15;;
66966;SDS011;53900;51.468;-2.586;2023-07-31T13:56:18;15.00;;;4.13;;
66966;SDS011;53900;51.468;-2.586;2023-07-31T13:58:43;14.95;;;4.10;;
66966;SDS011;53900;51.468;-2.586;2023-07-31T14:01:09;14.55;;;3.83;;
66966;SDS011;53900;51.468;-2.586;2023-07-31T14:03:34;15.80;;;4.05;;
66966;SDS011;53900;51.468;-2.586;2023-07-31T14:05:59;14.02;;;3.95;;
66966;SDS011;53900;51.468;-2.586;2023-07-31T14:08:24;14.93;;;4.28;;
66966;SDS011;53900;51.468;-2.586;2023-07-31T14:10:49;13.43;;;3.70;;
66966;SDS011;53900;51.468;-2.586;2023-07-31T14:13:15;11.53;;;3.70;;
66966;SDS011;53900;51.468;-2.586;2023-07-31T14:15:43;10.23;;;3.40;;
66966;SDS011;53900;51.468;-2.586;2023-07-31T14:18:08;12.98;;;3.53;;
66966;SDS011;53900;51.468;-2.586;2023-07-31T14:20:34;10.95;;;3.03;;
66966;SDS011;53900;51.468;-2.586;2023-07-31T14:22:59;21.27;;;4.60;;
66966;SDS011;53900;51.468;-2.586;2023-07-31T14:25:24;12.57;;;3.60;;
66966;SDS011;53900;51.468;-2.586;2023-07-31T14:27:49;12.07;;;3.40;;
66966;SDS011;53900;51.468;-2.586;2023-07-31T14:30:15;10.73;;;3.78;;
66966;SDS011;53900;51.468;-2.586;2023-07-31T14:32:41;10.63;;;4.38;;
66966;SDS011;53900;51.468;-2.586;2023-07-31T14:35:06;8.35;;;3.00;;
66966;SDS011;53900;51.468;-2.586;2023-07-31T14:37:38;7.85;;;2.78;;
66966;SDS011;53900;51.468;-2.586;2023-07-31T14:40:04;8.52;;;3.08;;
66966;SDS011;53900;51.468;-2.586;2023-07-31T14:42:29;11.52;;;2.78;;